Ana Sayfa
METAR-TAF:

METAR-TAF

Havaalanları :

Konakri Uluslararası Havalimanı

Konakri, Gine

Enlem: 09-34N, Boylam: 013-37W, yükseklik: 26 m

Güncel hava durumu gözlemi

Rapor saat 22:00 UTC de 42 dakika önce yapıldı.
Rüzgar batı/kuzeybatıdan 6 kt
Sıcaklık 28°C
Nem 79%
Basınç 1012 hPa
Görüş mesafesi 10 km veya daha fazla
1500 m altında bulut yok ve kümülonimbus yok

METAR: GUCY 202200Z 29006KT CAVOK 28/24 Q1012 NOSIG

Saat: 22:42 (22:42 UTC)

Tahmin

Rapor saat 17:00 UTC de 5 saat ve 42 dakika önce yapıldı.
Ayın 20'si saat 18 UTC'den ayın 21'si saat 24 UTC'ye kadar geçerli Tahmin
Rüzgar batı/kuzeybatıdan 6 kt
Görüş mesafesi 10 km veya daha fazla
1500 ft yükseklikte parçalı bulutlu
11000 ft yükseklikte parçalı bulutlu
Olasılık 30%
ayın 21'si saat 02 UTC'den ayın 21'si saat 07 UTC'ye kadar
Rüzgar değişken yönden 2 kt
11000 ft yükseklikte parçalı çok bulutlu

TAF: GUCY 201700Z 2018/2124 30006KT 9999 SCT015 SCT110 PROB30 2102/2107 VRB02KT BKN110

4.000'den fazla havaalanı için hava durumu gözlemleri ve tahminleri (METAR ve TAF raporları).

Kullanılabilir istasyonlar harita üzerinde sarı ve kırmızı noktalarla gösterilir.

İstasyonun adını görmek için fareyi noktanın üzerinde gezdirin.

Sonrasında hava gözlem ve tahminlerini görmek için tıklayın.

Haritayı değiştirmek için: yaklaştırmak için siyah artı işaretli yeşil düğmeye ve uzaklaştırmak için de eksi işaretli düğmeye hızla tıklayın; bitişik haritalar için yeşil okları kullanın.


METAR-TAF: